Time;durP1;ratioP1;P1;durP2;ratioP2;P2;SDS_P1;SDS_P2;PMS_P1;PMS_P2;Temp;Humidity;BMP_temperature;BMP_pressure;BME280_temperature;BME280_humidity;BME280_pressure;Samples;Min_cycle;Max_cycle;Signal;HPM_P1;HPM_P2
2020/12/07 00:00:50;;;;;;;20.62;13.48;;;;;;;1.51;74.33;100256.55;1750721;81;26397;-54
2020/12/07 00:03:17;;;;;;;19.57;13.10;;;;;;;1.54;74.52;100267.25;1750869;80;25884;-51
2020/12/07 00:05:44;;;;;;;19.50;12.78;;;;;;;1.53;74.21;100258.42;1751045;80;25971;-54
2020/12/07 00:08:11;;;;;;;22.13;13.80;;;;;;;1.53;74.34;100273.09;1752404;81;25798;-53
2020/12/07 00:10:37;;;;;;;21.00;13.32;;;;;;;1.52;74.41;100250.17;1753293;80;26092;-53
2020/12/07 00:13:04;;;;;;;21.87;13.70;;;;;;;1.52;74.36;100254.16;1752952;80;25797;-54
2020/12/07 00:15:31;;;;;;;21.23;13.30;;;;;;;1.52;74.31;100252.03;1752800;81;25763;-53
2020/12/07 00:18:01;;;;;;;19.52;12.13;;;;;;;1.52;74.36;100251.50;1753165;81;26039;-53
2020/12/07 00:20:27;;;;;;;19.80;12.73;;;;;;;1.53;74.27;100262.42;1753217;81;25832;-53
2020/12/07 00:22:56;;;;;;;19.70;12.47;;;;;;;1.52;74.33;100261.37;1752860;81;26172;-54
2020/12/07 00:25:23;;;;;;;20.25;14.43;;;;;;;1.51;74.31;100261.08;1753032;81;25831;-52
2020/12/07 00:27:50;;;;;;;22.30;13.98;;;;;;;1.49;74.40;100251.45;1753182;81;25713;-54
2020/12/07 00:30:17;;;;;;;18.23;12.78;;;;;;;1.48;74.25;100262.36;1753049;81;25605;-52
2020/12/07 00:32:43;;;;;;;24.40;14.47;;;;;;;1.47;74.30;100263.44;1753164;80;26223;-54
2020/12/07 00:35:10;;;;;;;18.45;12.47;;;;;;;1.46;74.38;100250.64;1753191;81;27024;-53
2020/12/07 00:37:37;;;;;;;20.05;12.35;;;;;;;1.47;74.49;100256.77;1752756;81;26075;-53
2020/12/07 00:40:04;;;;;;;21.02;13.20;;;;;;;1.46;74.33;100246.65;1753110;81;25738;-54
2020/12/07 00:42:31;;;;;;;21.42;13.03;;;;;;;1.46;74.31;100247.98;1753119;81;25818;-56
2020/12/07 00:44:58;;;;;;;18.92;12.78;;;;;;;1.44;74.29;100235.41;1753028;81;25643;-56
2020/12/07 00:47:25;;;;;;;19.30;12.50;;;;;;;1.45;74.24;100242.89;1753154;81;26756;-54
2020/12/07 00:49:51;;;;;;;23.47;13.00;;;;;;;1.43;74.26;100236.48;1753178;81;25706;-55
2020/12/07 00:52:18;;;;;;;21.80;13.20;;;;;;;1.41;74.24;100231.90;1743652;81;29124;-55
2020/12/07 00:54:45;;;;;;;20.52;11.60;;;;;;;1.40;74.15;100236.97;1734692;82;26101;-55
2020/12/07 00:57:12;;;;;;;18.95;11.50;;;;;;;1.40;74.19;100247.63;1734835;82;25829;-55
2020/12/07 00:59:38;;;;;;;18.07;11.60;;;;;;;1.38;74.07;100240.42;1734925;82;26878;-56
2020/12/07 01:02:05;;;;;;;21.80;12.10;;;;;;;1.38;74.21;100241.75;1734709;82;25782;-56
2020/12/07 01:04:32;;;;;;;16.12;11.50;;;;;;;1.37;74.21;100244.66;1734716;82;25758;-56
2020/12/07 01:06:59;;;;;;;21.27;11.83;;;;;;;1.37;74.13;100232.13;1734186;82;25763;-56
2020/12/07 01:09:25;;;;;;;21.68;12.00;;;;;;;1.35;74.00;100226.78;1714259;82;25693;-54
2020/12/07 01:11:58;;;;;;;17.12;11.35;;;;;;;1.32;73.91;100244.06;1733484;82;26524;-56
2020/12/07 01:14:25;;;;;;;19.75;11.85;;;;;;;1.30;74.03;100229.66;1733371;82;25576;-57
2020/12/07 01:16:54;;;;;;;18.80;11.78;;;;;;;1.29;73.95;100228.56;1733387;82;25747;-56
2020/12/07 01:19:22;;;;;;;17.10;11.45;;;;;;;1.28;73.91;100233.09;1733403;82;26371;-56
2020/12/07 01:21:49;;;;;;;19.77;11.18;;;;;;;1.30;74.04;100251.51;1733408;82;26343;-55
2020/12/07 01:24:17;;;;;;;21.73;10.08;;;;;;;1.31;74.12;100234.45;1733806;82;26740;-57
2020/12/07 01:26:44;;;;;;;18.55;11.73;;;;;;;1.32;74.10;100237.41;1733831;82;25885;-57
2020/12/07 01:29:10;;;;;;;19.17;11.88;;;;;;;1.30;74.05;100225.66;1734142;82;25647;-55
2020/12/07 01:31:37;;;;;;;16.27;10.72;;;;;;;1.29;73.91;100217.91;1734445;82;25661;-56
2020/12/07 01:34:04;;;;;;;20.20;10.53;;;;;;;1.27;74.05;100211.48;1734407;82;25678;-50
2020/12/07 01:36:31;;;;;;;16.93;10.93;;;;;;;1.27;74.01;100206.16;1734348;82;26665;-49
2020/12/07 01:38:57;;;;;;;17.65;10.00;;;;;;;1.27;74.01;100207.50;1734297;82;25570;-53
2020/12/07 01:41:24;;;;;;;20.97;10.48;;;;;;;1.27;74.15;100213.36;1734428;82;25668;-51
2020/12/07 01:43:51;;;;;;;16.48;10.95;;;;;;;1.27;74.06;100199.50;1734345;82;25675;-50
2020/12/07 01:46:23;;;;;;;16.70;10.75;;;;;;;1.27;74.03;100206.16;1734466;82;25682;-53
2020/12/07 01:48:53;;;;;;;14.38;10.00;;;;;;;1.25;73.96;100200.28;1734482;82;25712;-50
2020/12/07 01:51:23;;;;;;;16.15;9.73;;;;;;;1.25;73.99;100187.50;1734461;82;26344;-49
2020/12/07 01:53:50;;;;;;;;;;;;;;;1.24;73.94;100187.20;1737015;82;25694;-55
2020/12/07 01:56:27;;;;;;;16.82;9.73;;;;;;;1.24;74.03;100176.04;1734469;82;25673;-56
2020/12/07 01:58:56;;;;;;;17.87;10.43;;;;;;;1.23;74.09;100170.95;1734046;82;25620;-55
2020/12/07 02:01:23;;;;;;;15.32;9.85;;;;;;;1.23;74.08;100177.62;1734713;82;25711;-53
2020/12/07 02:03:50;;;;;;;15.23;10.13;;;;;;;1.19;73.88;100174.65;1734375;82;25729;-54
2020/12/07 02:06:16;;;;;;;20.25;11.00;;;;;;;1.17;73.89;100187.39;1734359;82;25605;-50
2020/12/07 02:08:49;;;;;;;16.97;11.22;;;;;;;1.16;73.79;100179.64;1735285;82;25557;-51
2020/12/07 02:11:17;;;;;;;20.48;10.48;;;;;;;1.12;73.66;100180.67;1735785;82;25745;-53
2020/12/07 02:13:44;;;;;;;16.90;10.48;;;;;;;1.11;73.83;100188.41;1735653;82;25706;-52
2020/12/07 02:16:11;;;;;;;18.15;10.70;;;;;;;1.10;73.87;100190.24;1735552;82;25640;-51
2020/12/07 02:18:38;;;;;;;18.55;10.65;;;;;;;1.10;73.86;100177.45;1735710;82;25702;-51
2020/12/07 02:21:04;;;;;;;18.73;11.70;;;;;;;1.07;73.85;100176.11;1735692;82;25684;-52
2020/12/07 02:23:31;;;;;;;17.25;10.00;;;;;;;1.08;73.99;100178.23;1735759;82;25689;-51
2020/12/07 02:25:58;;;;;;;16.85;10.53;;;;;;;1.08;74.07;100183.56;1735557;82;26753;-51
2020/12/07 02:28:24;;;;;;;18.85;10.98;;;;;;;1.08;74.04;100171.05;1735577;82;26305;-49
2020/12/07 02:30:51;;;;;;;17.80;10.78;;;;;;;1.07;73.98;100161.97;1735703;82;25698;-53
2020/12/07 02:33:18;;;;;;;19.73;10.95;;;;;;;1.07;73.82;100174.78;1735651;82;25607;-53
2020/12/07 02:35:44;;;;;;;17.52;10.82;;;;;;;1.06;73.83;100176.36;1735784;82;25683;-54
2020/12/07 02:38:11;;;;;;;20.15;10.95;;;;;;;1.03;73.55;100162.20;1735845;82;27194;-52
2020/12/07 02:40:38;;;;;;;16.55;10.30;;;;;;;1.01;73.68;100161.64;1735744;82;25680;-49
2020/12/07 02:43:05;;;;;;;16.77;10.38;;;;;;;0.98;73.82;100180.25;1735709;82;25587;-51
2020/12/07 02:45:32;;;;;;;16.50;10.82;;;;;;;0.98;73.58;100177.58;1735653;82;25774;-52
2020/12/07 02:47:58;;;;;;;18.75;10.45;;;;;;;0.95;73.49;100167.42;1735738;82;25639;-50
2020/12/07 02:50:25;;;;;;;16.25;10.50;;;;;;;0.91;73.69;100183.63;1735822;82;26005;-53
2020/12/07 02:52:52;;;;;;;20.92;11.22;;;;;;;;;;1735626;82;26464;-54
2020/12/07 02:55:18;;;;;;;18.52;10.23;;;;;;;0.89;73.80;100167.89;1735686;82;25727;-50
2020/12/07 02:57:45;;;;;;;16.42;10.63;;;;;;;0.88;73.79;100168.14;1735735;82;26356;-51
2020/12/07 03:00:12;;;;;;;15.63;10.18;;;;;;;0.87;73.76;100168.67;1735833;82;25658;-50
2020/12/07 03:02:38;;;;;;;15.40;9.93;;;;;;;0.88;73.71;100174.80;1735824;82;27206;-51
2020/12/07 03:05:06;;;;;;;14.55;9.30;;;;;;;0.86;73.75;100163.59;1735653;82;25587;-50
2020/12/07 03:07:33;;;;;;;14.20;9.05;;;;;;;0.84;73.72;100161.17;1735738;82;25719;-50
2020/12/07 03:10:00;;;;;;;15.83;10.05;;;;;;;0.82;73.77;100176.59;1734466;82;25784;-50
2020/12/07 03:12:27;;;;;;;14.87;10.20;;;;;;;0.81;73.88;100169.65;1734636;82;25666;-54
2020/12/07 03:14:53;;;;;;;13.38;8.88;;;;;;;0.81;73.82;100166.98;1734522;82;26020;-52
2020/12/07 03:17:20;;;;;;;13.90;9.93;;;;;;;0.80;73.88;100192.02;1734331;82;26445;-49
2020/12/07 03:19:47;;;;;;;12.40;8.98;;;;;;;0.79;73.75;100157.65;1734691;82;26289;-53
2020/12/07 03:22:14;;;;;;;13.38;9.30;;;;;;;0.77;73.84;100155.23;1734649;82;26395;-51
2020/12/07 03:24:41;;;;;;;14.63;8.93;;;;;;;0.76;73.80;100152.81;1734679;82;25691;-52
2020/12/07 03:27:08;;;;;;;13.60;9.40;;;;;;;0.78;74.02;100150.16;1734744;82;25903;-51
2020/12/07 03:29:35;;;;;;;12.90;8.55;;;;;;;0.79;73.86;100131.02;1734642;82;25780;-50
2020/12/07 03:32:02;;;;;;;12.58;7.95;;;;;;;0.75;73.74;100158.67;1734602;82;25662;-49
2020/12/07 03:34:29;;;;;;;14.58;9.35;;;;;;;0.75;73.74;100160.00;1734723;82;25796;-46
2020/12/07 03:36:56;;;;;;;13.40;8.63;;;;;;;0.74;73.83;100159.71;1734871;82;25684;-49
2020/12/07 03:39:23;;;;;;;12.45;8.95;;;;;;;0.71;73.77;100151.67;1734772;82;26425;-49
2020/12/07 03:41:49;;;;;;;11.93;8.13;;;;;;;0.72;73.85;100159.16;1734709;82;25706;-51
2020/12/07 03:44:16;;;;;;;11.63;8.43;;;;;;;0.72;73.88;100155.96;1734723;82;25784;-48
2020/12/07 03:46:42;;;;;;;15.28;8.58;;;;;;;0.72;73.89;100158.63;1734572;82;25805;-51
2020/12/07 03:49:09;;;;;;;11.73;8.10;;;;;;;0.72;73.83;100163.95;1734964;82;26268;-52
2020/12/07 03:51:36;;;;;;;12.78;8.78;;;;;;;0.70;73.74;100160.73;1734749;82;26224;-49
2020/12/07 03:54:02;;;;;;;16.55;9.95;;;;;;;0.70;73.84;100163.93;1734643;82;25643;-49
2020/12/07 03:56:29;;;;;;;16.87;9.53;;;;;;;0.68;73.84;100164.67;1734814;82;26267;-49
2020/12/07 03:58:56;;;;;;;11.73;7.87;;;;;;;0.66;73.84;100164.92;1734759;82;25612;-48
2020/12/07 04:01:23;;;;;;;13.13;8.38;;;;;;;0.65;73.77;100164.66;1734878;82;25592;-48
2020/12/07 04:06:32;;;;;;;13.32;7.90;;;;;;;0.70;73.80;100159.94;1847265;76;32973;-51
2020/12/07 04:08:57;;;;;;;15.35;8.65;;;;;;;0.63;73.78;100149.97;1817177;78;25652;-54
2020/12/07 04:11:23;;;;;;;12.45;8.28;;;;;;;0.62;73.84;100194.43;1817444;78;26158;-47
2020/12/07 04:13:50;;;;;;;12.23;8.68;;;;;;;0.61;73.83;100170.17;1817191;78;25605;-50
2020/12/07 04:16:17;;;;;;;12.70;8.30;;;;;;;0.59;73.78;100152.32;1817301;78;25620;-52
2020/12/07 04:18:44;;;;;;;14.87;7.70;;;;;;;0.58;73.83;100161.38;1817286;78;25651;-53
2020/12/07 04:21:11;;;;;;;11.88;7.97;;;;;;;0.51;73.66;100156.23;1817321;78;25914;-49
2020/12/07 04:23:38;;;;;;;10.80;7.75;;;;;;;0.56;73.82;100158.13;1817344;78;26224;-52
2020/12/07 04:26:04;;;;;;;14.03;8.28;;;;;;;0.58;73.93;100159.22;1817229;78;26242;-53
2020/12/07 04:28:31;;;;;;;12.63;8.18;;;;;;;0.56;73.88;100143.48;1817243;78;25542;-46
2020/12/07 04:30:58;;;;;;;13.70;7.83;;;;;;;0.55;73.93;100146.69;1817403;78;25639;-52
2020/12/07 04:33:25;;;;;;;9.38;7.20;;;;;;;0.55;73.97;100156.00;1817299;78;25642;-52
2020/12/07 04:35:51;;;;;;;13.90;8.68;;;;;;;0.57;73.98;100152.30;1817153;78;27907;-52
2020/12/07 04:38:18;;;;;;;14.43;8.85;;;;;;;0.56;73.88;100151.48;1817214;78;25684;-52
2020/12/07 04:40:46;;;;;;;12.13;9.35;;;;;;;0.53;73.83;100147.47;1817231;78;25606;-50
2020/12/07 04:43:14;;;;;;;14.70;8.85;;;;;;;0.54;73.80;100142.94;1817100;78;25669;-47
2020/12/07 04:45:41;;;;;;;13.08;9.03;;;;;;;0.53;73.89;100150.66;1817316;78;25543;-49
2020/12/07 04:48:11;;;;;;;14.20;8.28;;;;;;;0.51;73.87;100150.08;1817249;78;26003;-53
2020/12/07 04:50:39;;;;;;;14.68;8.40;;;;;;;0.50;73.88;100147.16;1817106;78;25733;-54
2020/12/07 04:53:06;;;;;;;13.43;8.55;;;;;;;0.50;73.94;100140.50;1817177;78;25574;-53
2020/12/07 04:55:32;;;;;;;16.07;8.88;;;;;;;0.48;73.83;100143.41;1817015;78;25551;-53
2020/12/07 04:58:00;;;;;;;12.63;8.53;;;;;;;0.48;73.95;100135.95;1817096;78;25696;-53
2020/12/07 05:00:27;;;;;;;12.25;8.23;;;;;;;0.48;73.95;100150.59;1817155;78;25863;-51
2020/12/07 05:02:55;;;;;;;10.23;7.35;;;;;;;0.48;73.93;100140.74;1817052;78;26300;-53
2020/12/07 05:05:23;;;;;;;13.68;8.45;;;;;;;0.49;74.05;100127.70;1816936;78;25597;-54
2020/12/07 05:07:51;;;;;;;11.53;7.35;;;;;;;0.49;73.85;100142.88;1817033;78;26336;-54
2020/12/07 05:13:10;;;;;;;11.53;7.30;;;;;;;0.54;73.73;100149.59;1847199;76;34135;-52
2020/12/07 05:15:31;;;;;;;13.35;8.08;;;;;;;0.47;73.75;100131.67;1815483;78;26381;-52
2020/12/07 05:17:59;;;;;;;10.50;7.47;;;;;;;0.46;73.67;100146.02;1816999;78;26134;-53
2020/12/07 05:20:26;;;;;;;10.63;7.30;;;;;;;0.46;73.80;100144.18;1817018;78;26320;-51
2020/12/07 05:22:53;;;;;;;14.35;8.03;;;;;;;0.47;73.72;100136.45;1817209;78;25621;-52
2020/12/07 05:25:20;;;;;;;12.35;8.50;;;;;;;0.45;73.62;100142.55;1816959;78;25252;-52
2020/12/07 05:27:48;;;;;;;12.40;8.58;;;;;;;0.45;73.56;100157.19;1817133;78;25709;-53
2020/12/07 05:30:26;;;;;;;11.65;7.95;;;;;;;0.44;73.70;100150.25;1817340;78;26200;-52
2020/12/07 05:32:51;;;;;;;12.78;7.72;;;;;;;0.46;73.76;100164.64;1816543;78;25689;-54
2020/12/07 05:35:17;;;;;;;12.28;8.05;;;;;;;0.44;73.61;100168.88;1785601;78;26298;-53
2020/12/07 05:37:44;;;;;;;11.90;8.23;;;;;;;0.43;73.66;100142.00;1817130;78;25700;-52
2020/12/07 05:40:14;;;;;;;10.63;7.58;;;;;;;0.44;73.76;100150.78;1817028;78;25707;-51
2020/12/07 05:42:41;;;;;;;15.25;9.03;;;;;;;0.44;73.75;100152.91;1817236;78;27216;-53
2020/12/07 05:45:10;;;;;;;13.55;8.25;;;;;;;0.44;73.67;100153.45;1816969;78;26326;-53
2020/12/07 05:47:39;;;;;;;12.05;8.85;;;;;;;0.44;73.81;100150.25;1816976;78;25663;-51
2020/12/07 05:50:10;;;;;;;12.73;8.48;;;;;;;0.44;73.78;100144.92;1817221;78;25946;-53
2020/12/07 05:52:52;;;;;;;14.83;8.68;;;;;;;0.44;73.79;100150.78;1817102;78;26257;-53
2020/12/07 05:55:21;;;;;;;14.23;8.95;;;;;;;0.43;73.79;100133.22;1817090;78;25752;-53
2020/12/07 05:58:07;;;;;;;13.38;8.88;;;;;;;0.43;73.69;100133.22;1817084;78;25682;-52
2020/12/07 06:00:38;;;;;;;13.70;7.37;;;;;;;0.43;73.76;100135.35;1817090;78;25704;-50
2020/12/07 06:03:06;;;;;;;12.23;7.97;;;;;;;0.44;73.83;100133.48;1816944;78;25703;-53
2020/12/07 06:05:34;;;;;;;14.15;8.20;;;;;;;0.44;73.81;100128.95;1817097;78;25680;-52
2020/12/07 06:08:08;;;;;;;12.07;8.08;;;;;;;0.43;73.84;100134.55;1816915;78;26230;-54
2020/12/07 06:10:57;;;;;;;12.37;7.62;;;;;;;0.43;73.89;100147.33;1816945;78;25684;-46
2020/12/07 06:13:26;;;;;;;15.38;9.03;;;;;;;0.43;73.80;100147.33;1816925;78;25735;-48
2020/12/07 06:15:54;;;;;;;13.32;8.50;;;;;;;0.42;73.75;100151.56;1785277;78;25700;-53
2020/12/07 06:18:36;;;;;;;15.08;9.23;;;;;;;0.43;73.87;100158.50;1816942;78;25637;-54
2020/12/07 06:21:18;;;;;;;13.45;8.53;;;;;;;0.42;73.73;100151.56;1816895;78;25974;-54
2020/12/07 06:23:47;;;;;;;13.40;8.20;;;;;;;0.40;73.86;100154.46;1816430;78;25554;-53
2020/12/07 06:26:18;;;;;;;15.20;8.28;;;;;;;0.41;73.95;100156.09;1816301;78;25662;-53
2020/12/07 06:28:47;;;;;;;14.23;9.08;;;;;;;0.42;73.84;100190.94;1816265;78;25721;-53
2020/12/07 06:31:21;;;;;;;12.05;8.18;;;;;;;0.43;73.81;100163.83;1816499;78;25737;-53
2020/12/07 06:33:52;;;;;;;14.78;8.73;;;;;;;0.42;73.77;100167.53;1816329;78;26719;-49
2020/12/07 06:36:32;;;;;;;13.93;8.50;;;;;;;0.43;73.81;100169.15;1804700;78;25678;-51
2020/12/07 06:39:07;;;;;;;15.50;8.88;;;;;;;0.42;73.82;100161.67;1786961;80;25710;-55
2020/12/07 06:41:46;;;;;;;15.13;8.73;;;;;;;0.44;73.79;100178.73;1786587;79;26036;-51
2020/12/07 06:44:19;;;;;;;12.63;7.90;;;;;;;0.43;73.82;100159.30;1787014;80;25634;-52
2020/12/07 06:47:09;;;;;;;15.23;10.20;;;;;;;0.44;73.75;100178.19;1772480;78;26379;-55
2020/12/07 06:49:50;;;;;;;13.58;7.60;;;;;;;0.44;73.57;100152.11;1819972;77;26017;-54
2020/12/07 06:52:13;;;;;;;16.40;8.73;;;;;;;0.44;73.67;100160.89;1812880;77;25674;-56
2020/12/07 06:55:04;;;;;;;12.15;8.58;;;;;;;0.44;73.64;100158.77;1796444;77;25643;-53
2020/12/07 06:57:32;;;;;;;12.13;8.10;;;;;;;0.43;73.59;100134.02;1793278;78;25709;-53
2020/12/07 07:00:12;;;;;;;13.40;8.33;;;;;;;0.43;73.54;100149.19;1784335;80;25818;-52
2020/12/07 07:02:42;;;;;;;13.72;8.65;;;;;;;0.44;73.65;100137.48;1784077;80;26351;-55
2020/12/07 07:05:11;;;;;;;13.03;8.88;;;;;;;0.44;73.55;100163.55;1780507;80;25763;-55
2020/12/07 07:07:38;;;;;;;14.47;8.83;;;;;;;0.43;73.54;100142.00;1784043;80;26374;-56
2020/12/07 07:10:07;;;;;;;14.75;8.48;;;;;;;0.45;73.37;100152.41;1782603;80;25760;-55
2020/12/07 07:12:36;;;;;;;12.20;7.85;;;;;;;0.45;73.41;100150.55;1784289;80;25889;-56
2020/12/07 07:15:05;;;;;;;10.35;7.28;;;;;;;0.45;73.37;100163.84;1784265;80;25722;-55
2020/12/07 07:17:36;;;;;;;16.37;8.68;;;;;;;0.44;73.22;100155.57;1796681;77;25710;-55
2020/12/07 07:20:11;;;;;;;10.48;7.85;;;;;;;0.43;73.08;100151.85;1794018;78;25497;-55
2020/12/07 07:22:44;;;;;;;15.95;8.18;;;;;;;0.43;73.04;100157.17;1803404;79;25528;-55
2020/12/07 07:30:26;;;;;;;14.23;7.47;;;;;;;0.44;73.08;100151.58;1816811;77;25607;-53
2020/12/07 07:32:55;;;;;;;13.58;7.62;;;;;;;0.44;72.77;100167.55;1814074;79;25839;-52
2020/12/07 07:35:25;;;;;;;11.40;7.70;;;;;;;0.44;72.79;100171.54;1814803;78;25966;-55
2020/12/07 07:37:52;;;;;;;14.07;7.92;;;;;;;0.45;72.44;100152.41;1814137;79;26647;-53
2020/12/07 07:40:26;;;;;;;17.80;7.87;;;;;;;0.42;72.61;100155.55;1814145;78;25733;-55
2020/12/07 07:42:57;;;;;;;15.63;8.13;;;;;;;0.43;72.62;100173.14;1814206;79;25578;-55
2020/12/07 07:45:31;;;;;;;16.65;9.05;;;;;;;0.42;72.64;100163.00;1813452;78;25562;-55
2020/12/07 08:15:29;;;;;;;12.03;7.40;;;;;;;0.39;71.71;100178.66;1785762;80;26237;-53
2020/12/07 08:17:54;;;;;;;13.93;8.93;;;;;;;0.39;71.54;100193.29;1784261;80;26424;-55
2020/12/07 08:20:27;;;;;;;15.28;7.97;;;;;;;0.47;71.82;100159.61;1785901;80;25709;-55
2020/12/07 08:23:02;;;;;;;16.57;8.98;;;;;;;0.57;71.55;100161.08;1786028;80;26332;-53
2020/12/07 08:25:50;;;;;;;17.20;9.10;;;;;;;0.61;70.80;100158.73;1776052;79;25334;-55
2020/12/07 08:28:23;;;;;;;17.30;8.53;;;;;;;0.64;70.95;100168.36;1746723;81;25872;-52
2020/12/07 08:31:15;;;;;;;13.03;7.42;;;;;;;0.67;70.31;100159.09;1754815;81;25663;-54
2020/12/07 08:34:02;;;;;;;15.25;8.50;;;;;;;0.69;70.69;100172.95;1755016;81;25998;-52
2020/12/07 08:36:32;;;;;;;14.55;8.08;;;;;;;0.75;70.74;100154.67;1754838;81;25738;-55
2020/12/07 08:38:59;;;;;;;;;;;;;;;0.97;70.31;100176.50;1757598;81;25628;-56
2020/12/07 08:41:34;;;;;;;13.38;8.10;;;;;;;1.09;69.86;100163.34;1732944;80;27110;-54
2020/12/07 08:44:07;;;;;;;14.70;8.23;;;;;;;1.25;69.85;100162.97;1741830;81;25758;-56
2020/12/07 08:46:37;;;;;;;15.45;8.28;;;;;;;1.51;69.85;100167.23;1752828;81;25678;-57
2020/12/07 08:49:06;;;;;;;16.17;8.53;;;;;;;1.71;69.61;100181.30;1782396;79;25696;-50
2020/12/07 08:51:35;;;;;;;17.67;8.30;;;;;;;1.94;68.94;100187.36;1758262;81;26296;-56
2020/12/07 08:54:03;;;;;;;15.98;8.08;;;;;;;2.03;68.20;100179.18;1758538;81;25989;-54
2020/12/07 08:56:29;;;;;;;16.17;8.28;;;;;;;2.01;67.43;100188.77;1714225;81;25690;-57
2020/12/07 08:58:56;;;;;;;16.93;8.88;;;;;;;1.98;67.98;100184.48;1710468;83;25728;-57
2020/12/07 09:01:23;;;;;;;14.90;7.75;;;;;;;1.97;67.72;100183.66;1680240;85;25651;-57
2020/12/07 09:03:51;;;;;;;11.95;6.78;;;;;;;2.07;67.37;100194.16;1710361;83;25675;-55
2020/12/07 09:06:20;;;;;;;14.50;8.30;;;;;;;2.08;67.13;100201.08;1680318;85;26454;-56
2020/12/07 09:08:46;;;;;;;11.83;8.03;;;;;;;2.16;66.65;100179.27;1686181;83;25846;-56
2020/12/07 09:14:01;;;;;;;14.37;9.63;;;;;;;2.27;66.00;100190.84;1831756;76;34746;-58
2020/12/07 09:16:27;;;;;;;15.60;8.38;;;;;;;2.22;65.81;100187.59;1831966;77;25719;-58
2020/12/07 09:18:54;;;;;;;14.55;8.30;;;;;;;2.16;65.61;100185.94;1847576;77;27099;-61
2020/12/07 09:21:21;;;;;;;14.45;7.55;;;;;;;2.03;64.97;100197.86;1847555;77;25690;-58
2020/12/07 09:23:47;;;;;;;18.20;7.70;;;;;;;2.03;65.01;100179.98;1777752;80;26298;-62
2020/12/07 09:26:14;;;;;;;14.63;8.00;;;;;;;1.98;65.31;100167.14;1788403;80;25622;-59
2020/12/07 09:28:41;;;;;;;14.35;8.28;;;;;;;2.12;66.62;100179.52;1784216;80;26235;-67
2020/12/07 09:31:08;;;;;;;14.28;7.90;;;;;;;2.34;65.74;100172.73;1788568;80;26227;-61
2020/12/07 09:33:35;;;;;;;12.80;7.05;;;;;;;2.49;65.85;100175.50;1784160;80;25712;-58
2020/12/07 09:36:04;;;;;;;16.12;8.10;;;;;;;2.61;64.71;100176.09;1788594;80;25653;-62
2020/12/07 09:38:31;;;;;;;13.98;7.70;;;;;;;2.70;64.75;100187.09;1784076;80;25657;-62
2020/12/07 09:40:58;;;;;;;13.65;8.40;;;;;;;3.13;64.55;100175.82;1788649;80;25773;-61
2020/12/07 09:43:25;;;;;;;11.70;7.40;;;;;;;3.79;62.93;100164.97;1784120;80;25868;-55
2020/12/07 09:45:52;;;;;;;11.97;7.30;;;;;;;4.19;59.96;100169.25;1788495;80;25642;-58
2020/12/07 09:48:19;;;;;;;12.18;7.08;;;;;;;4.41;59.99;100165.77;1784091;80;25722;-58
2020/12/07 09:50:45;;;;;;;14.30;7.45;;;;;;;4.35;58.21;100171.39;1788637;80;25865;-57
2020/12/07 09:53:18;;;;;;;15.38;7.83;;;;;;;4.63;59.36;100179.36;1784095;80;26379;-55
2020/12/07 09:55:40;;;;;;;14.73;8.00;;;;;;;4.72;60.25;100182.31;1750137;80;27053;-62
2020/12/07 09:58:08;;;;;;;11.68;7.35;;;;;;;4.94;60.30;100178.75;1728682;82;25810;-59
2020/12/07 10:00:35;;;;;;;12.90;7.78;;;;;;;5.12;57.77;100178.66;1728777;82;25743;-58
2020/12/07 10:03:03;;;;;;;13.93;7.28;;;;;;;5.56;57.55;100183.80;1728600;82;26345;-59
2020/12/07 10:05:29;;;;;;;12.25;6.65;;;;;;;5.98;58.62;100182.48;1726410;83;25731;-56
2020/12/07 10:07:56;;;;;;;17.87;7.78;;;;;;;6.27;54.58;100177.67;1728615;82;26379;-57
2020/12/07 10:10:23;;;;;;;15.43;7.58;;;;;;;6.39;55.28;100179.43;1737137;81;25652;-57
2020/12/07 10:12:50;;;;;;;14.10;7.00;;;;;;;6.27;53.03;100173.64;1737459;81;25926;-60
2020/12/07 10:15:17;;;;;;;10.35;7.45;;;;;;;6.23;53.65;100196.76;1739289;82;25765;-52
2020/12/07 10:17:43;;;;;;;13.93;7.10;;;;;;;6.08;53.97;100194.48;1731578;81;26240;-55
2020/12/07 10:20:10;;;;;;;12.35;6.97;;;;;;;6.06;54.46;100183.74;1709406;83;25798;-57
2020/12/07 10:22:37;;;;;;;11.57;7.05;;;;;;;6.35;52.56;100186.44;1706912;84;25582;-58
2020/12/07 10:25:04;;;;;;;13.35;7.22;;;;;;;6.39;52.13;100175.40;1706545;83;25837;-57
2020/12/07 10:27:30;;;;;;;11.93;7.55;;;;;;;6.38;53.23;100184.53;1706126;84;25791;-57
2020/12/07 10:29:57;;;;;;;10.38;7.10;;;;;;;6.62;54.53;100168.43;1706492;84;25733;-57
2020/12/07 10:32:24;;;;;;;13.43;7.67;;;;;;;6.85;55.74;100173.56;1706446;83;25794;-57
2020/12/07 10:34:51;;;;;;;12.40;7.70;;;;;;;7.09;51.95;100180.81;1706421;84;25823;-58
2020/12/07 10:37:18;;;;;;;12.80;7.50;;;;;;;6.86;51.15;100176.52;1706552;84;25728;-56
2020/12/07 10:39:45;;;;;;;12.60;7.75;;;;;;;6.69;52.09;100161.38;1706460;84;25712;-57
2020/12/07 10:42:12;;;;;;;11.40;6.67;;;;;;;6.45;51.21;100176.14;1706619;84;25649;-57
2020/12/07 10:44:39;;;;;;;10.80;6.97;;;;;;;6.14;51.48;100177.77;1706523;84;25734;-57
2020/12/07 10:47:06;;;;;;;14.15;8.23;;;;;;;5.74;52.38;100182.36;1706384;84;26339;-57
2020/12/07 10:49:33;;;;;;;14.10;8.05;;;;;;;5.27;53.15;100167.61;1706309;84;26344;-59
2020/12/07 10:52:00;;;;;;;12.85;7.70;;;;;;;4.98;53.20;100170.95;1741802;81;25746;-58
2020/12/07 10:54:27;;;;;;;12.37;7.67;;;;;;;4.83;55.09;100168.58;1707073;84;25777;-57
2020/12/07 10:56:54;;;;;;;11.03;7.22;;;;;;;5.21;55.87;100164.95;1703851;80;25843;-58
2020/12/07 10:59:20;;;;;;;12.85;7.72;;;;;;;5.78;53.50;100152.52;1706773;84;25730;-58
2020/12/07 11:01:53;;;;;;;12.40;7.35;;;;;;;6.14;54.49;100162.45;1706795;84;25791;-55
2020/12/07 11:04:20;;;;;;;11.95;7.22;;;;;;;6.39;51.58;100161.17;1707048;84;26227;-58
2020/12/07 11:06:49;;;;;;;14.45;7.53;;;;;;;6.61;52.92;100162.81;1706750;84;25641;-61
2020/12/07 11:09:23;;;;;;;14.18;7.33;;;;;;;6.85;52.94;100158.78;1706889;84;25927;-61
2020/12/07 11:11:44;;;;;;;14.18;7.72;;;;;;;6.89;51.66;100158.45;1705470;84;26327;-61
2020/12/07 11:14:11;;;;;;;14.38;7.95;;;;;;;7.32;53.59;100159.53;1700781;82;25632;-65
2020/12/07 11:16:38;;;;;;;12.43;7.72;;;;;;;7.91;53.14;100156.77;1699307;84;25858;-61
2020/12/07 11:19:05;;;;;;;12.55;7.90;;;;;;;8.11;50.70;100156.20;1699354;84;25687;-59
2020/12/07 11:21:32;;;;;;;14.00;7.40;;;;;;;8.06;48.81;100148.20;1699189;84;28174;-60
2020/12/07 11:23:59;;;;;;;11.73;7.17;;;;;;;7.91;49.39;100158.12;1699244;84;25732;-58
2020/12/07 11:26:25;;;;;;;13.45;7.50;;;;;;;7.93;49.67;100150.54;1699233;84;26084;-57
2020/12/07 11:28:52;;;;;;;12.40;7.75;;;;;;;7.75;49.01;100147.36;1698990;83;25664;-57
2020/12/07 11:31:19;;;;;;;15.35;7.90;;;;;;;7.30;49.40;100145.02;1699432;84;25680;-62
2020/12/07 11:33:46;;;;;;;14.98;7.65;;;;;;;6.93;51.16;100137.19;1698726;83;26802;-61
2020/12/07 11:36:15;;;;;;;16.77;8.58;;;;;;;6.47;50.24;100135.83;1699343;84;25775;-65
2020/12/07 11:46:42;;;;;;;12.55;7.90;;;;;;;5.23;53.04;100144.02;1849632;77;25734;-58
2020/12/07 11:49:07;;;;;;;13.60;7.87;;;;;;;5.11;53.76;100146.23;1850383;77;25742;-58
2020/12/07 11:51:34;;;;;;;16.35;8.38;;;;;;;5.11;53.24;100141.39;1781603;80;26304;-60
2020/12/07 11:54:01;;;;;;;15.28;9.05;;;;;;;4.96;53.13;100139.61;1781560;80;25645;-63
2020/12/07 11:56:35;;;;;;;14.13;8.18;;;;;;;4.87;54.01;100151.44;1775116;79;25728;-58
2020/12/07 11:59:03;;;;;;;14.83;8.20;;;;;;;4.62;54.29;100146.96;1735882;82;26300;-59
2020/12/07 12:01:31;;;;;;;16.17;8.53;;;;;;;4.61;55.00;100138.65;1735828;82;26122;-58
2020/12/07 12:03:59;;;;;;;15.93;8.50;;;;;;;4.53;54.77;100137.34;1735883;82;25775;-54
2020/12/07 12:06:34;;;;;;;12.82;8.28;;;;;;;4.43;55.35;100148.87;1735887;82;25687;-59
2020/12/07 12:09:06;;;;;;;13.40;7.97;;;;;;;4.35;54.68;100147.30;1735934;82;26096;-58
2020/12/07 12:11:43;;;;;;;14.38;7.75;;;;;;;4.21;55.04;100169.81;1816732;78;34731;-56
2020/12/07 12:14:11;;;;;;;20.23;8.48;;;;;;;3.92;55.90;100146.27;1786417;80;25650;-59
2020/12/07 12:16:39;;;;;;;16.30;8.68;;;;;;;3.80;55.57;100145.70;1786494;80;26161;-58
2020/12/07 12:19:11;;;;;;;16.12;7.85;;;;;;;3.69;56.49;100155.61;1786377;80;25640;-58